createdAt,value
2019-06-10T00:01:34.481Z,3.63
2019-06-10T00:04:05.162Z,3.70
2019-06-10T00:06:31.160Z,4.10
2019-06-10T00:08:58.393Z,3.73
2019-06-10T00:11:25.992Z,4.10
2019-06-10T00:13:53.191Z,4.20
2019-06-10T00:16:20.879Z,4.07
2019-06-10T00:18:50.848Z,3.70
2019-06-10T00:21:17.550Z,3.47
2019-06-10T00:23:44.824Z,3.70
2019-06-10T00:26:12.696Z,6.20
2019-06-10T00:28:41.886Z,4.40
2019-06-10T00:31:11.310Z,3.50
2019-06-10T00:33:38.193Z,4.20
2019-06-10T00:36:07.485Z,3.53
2019-06-10T00:38:34.749Z,3.30
2019-06-10T00:41:05.275Z,4.00
2019-06-10T00:43:31.295Z,3.70
2019-06-10T00:45:58.490Z,3.40
2019-06-10T00:48:29.135Z,3.77
2019-06-10T00:50:57.045Z,3.87
2019-06-10T00:53:24.254Z,3.73
2019-06-10T00:55:51.916Z,2.70
2019-06-10T00:58:21.455Z,3.40
2019-06-10T01:00:48.361Z,3.10
2019-06-10T01:03:15.932Z,2.60
2019-06-10T01:05:43.607Z,3.40
2019-06-10T01:08:14.030Z,2.57
2019-06-10T01:10:43.836Z,3.20
2019-06-10T01:13:11.727Z,2.90
2019-06-10T01:15:38.394Z,3.07
2019-06-10T01:18:05.627Z,3.07
2019-06-10T01:20:32.669Z,3.30
2019-06-10T01:23:01.555Z,2.90
2019-06-10T01:25:31.085Z,2.63
2019-06-10T01:28:00.503Z,3.37
2019-06-10T01:30:27.542Z,3.40
2019-06-10T01:32:55.172Z,3.50
2019-06-10T01:35:22.360Z,2.93
2019-06-10T01:37:51.876Z,3.57
2019-06-10T01:40:20.907Z,2.90
2019-06-10T01:42:50.579Z,3.23
2019-06-10T01:45:17.544Z,3.13
2019-06-10T01:47:44.638Z,2.87
2019-06-10T01:50:15.625Z,2.60
2019-06-10T01:52:41.599Z,2.70
2019-06-10T01:55:12.205Z,3.80
2019-06-10T01:57:38.375Z,2.67
2019-06-10T02:00:12.021Z,3.00
2019-06-10T02:02:35.473Z,2.73
2019-06-10T02:05:02.765Z,2.80
2019-06-10T02:07:31.797Z,3.53
2019-06-10T02:10:01.076Z,2.67
2019-06-10T02:12:28.054Z,2.70
2019-06-10T02:14:55.250Z,2.53
2019-06-10T02:17:23.824Z,3.03
2019-06-10T02:19:52.194Z,3.27
2019-06-10T02:22:23.847Z,2.90
2019-06-10T02:24:50.653Z,2.90
2019-06-10T02:27:19.541Z,3.40
2019-06-10T02:29:47.357Z,3.47
2019-06-10T02:32:20.772Z,3.03
2019-06-10T02:35:01.337Z,3.13
2019-06-10T02:37:17.008Z,3.00
2019-06-10T02:39:43.931Z,3.10
2019-06-10T02:42:30.692Z,2.70
2019-06-10T02:44:57.915Z,2.50
2019-06-10T02:47:32.106Z,3.07
2019-06-10T02:50:02.447Z,2.90
2019-06-10T02:52:32.201Z,2.93
2019-06-10T02:54:53.525Z,3.00
2019-06-10T02:57:28.822Z,2.60
2019-06-10T02:59:50.167Z,3.50
2019-06-10T03:02:18.282Z,3.10
2019-06-10T03:04:46.473Z,3.13
2019-06-10T03:07:15.787Z,2.77
2019-06-10T03:09:42.998Z,3.53
2019-06-10T03:12:12.212Z,3.43
2019-06-10T03:14:42.136Z,3.30
2019-06-10T03:17:12.670Z,4.10
2019-06-10T03:19:49.515Z,2.90
2019-06-10T03:22:09.105Z,3.30
2019-06-10T03:24:36.283Z,3.80
2019-06-10T03:27:03.930Z,4.27
2019-06-10T03:29:32.733Z,3.53
2019-06-10T03:32:04.502Z,3.77
2019-06-10T03:34:36.320Z,3.77
2019-06-10T03:36:58.387Z,3.80
2019-06-10T03:39:27.351Z,3.90
2019-06-10T03:41:54.877Z,4.17
2019-06-10T03:44:24.840Z,4.30
2019-06-10T03:46:52.345Z,4.17
2019-06-10T03:49:21.309Z,4.17
2019-06-10T03:51:52.950Z,4.40
2019-06-10T03:54:24.425Z,4.33
2019-06-10T03:56:51.978Z,3.97
2019-06-10T03:59:19.257Z,4.17
2019-06-10T04:01:46.776Z,4.87
2019-06-10T04:04:13.947Z,4.50
2019-06-10T04:06:44.188Z,3.80
2019-06-10T04:09:12.074Z,4.40
2019-06-10T04:11:39.497Z,4.70
2019-06-10T04:14:06.658Z,4.37
2019-06-10T04:16:33.803Z,5.30
2019-06-10T04:19:02.506Z,5.83
2019-06-10T04:21:29.934Z,4.33
2019-06-10T04:23:57.120Z,5.07
2019-06-10T04:26:25.754Z,4.60
2019-06-10T04:28:53.480Z,4.23
2019-06-10T04:31:23.027Z,5.90
2019-06-10T04:33:52.252Z,3.00
2019-06-10T04:36:18.827Z,3.57
2019-06-10T04:38:45.903Z,3.10
2019-06-10T04:41:13.118Z,3.40
2019-06-10T04:43:42.949Z,3.17
2019-06-10T04:46:09.469Z,4.33
2019-06-10T04:48:36.658Z,2.97
2019-06-10T04:51:04.085Z,3.43
2019-06-10T04:53:32.967Z,3.63
2019-06-10T04:56:02.701Z,3.40
2019-06-10T04:58:30.329Z,3.33
2019-06-10T05:00:58.479Z,3.23
2019-06-10T05:03:26.821Z,4.20
2019-06-10T05:05:54.720Z,3.37
2019-06-10T05:08:23.918Z,3.73
2019-06-10T05:10:52.929Z,2.83
2019-06-10T05:13:21.842Z,3.57
2019-06-10T05:15:49.246Z,3.57
2019-06-10T05:18:16.426Z,3.10
2019-06-10T05:20:54.068Z,3.70
2019-06-10T05:23:13.048Z,2.93
2019-06-10T05:25:42.643Z,3.13
2019-06-10T05:28:09.257Z,2.70
2019-06-10T05:30:36.416Z,3.70
2019-06-10T05:33:03.472Z,3.50
2019-06-10T05:35:31.598Z,2.87
2019-06-10T05:38:02.232Z,3.10
2019-06-10T05:40:29.385Z,3.27
2019-06-10T05:42:56.677Z,3.33
2019-06-10T05:45:25.886Z,3.03
2019-06-10T05:47:53.153Z,3.17
2019-06-10T05:50:22.496Z,3.00
2019-06-10T05:52:51.992Z,3.50
2019-06-10T05:55:18.943Z,3.73
2019-06-10T05:57:46.119Z,2.90
2019-06-10T06:00:15.145Z,3.50
2019-06-10T06:02:43.237Z,3.43
2019-06-10T06:05:12.896Z,3.20
2019-06-10T06:07:42.151Z,2.87
2019-06-10T06:10:09.668Z,3.30
2019-06-10T06:12:37.871Z,3.30
2019-06-10T06:15:05.565Z,3.00
2019-06-10T06:17:35.106Z,2.90
2019-06-10T06:20:02.878Z,3.33
2019-06-10T06:22:34.041Z,3.17
2019-06-10T06:24:59.842Z,3.30
2019-06-10T06:27:28.690Z,3.67
2019-06-10T06:29:56.035Z,3.20
2019-06-10T06:32:23.715Z,3.13
2019-06-10T06:34:52.688Z,3.30
2019-06-10T06:37:20.294Z,3.00
2019-06-10T06:39:47.587Z,3.17
2019-06-10T06:42:14.864Z,3.87
2019-06-10T06:44:43.334Z,4.47
2019-06-10T06:47:13.055Z,3.13
2019-06-10T06:49:39.885Z,4.07
2019-06-10T06:52:07.049Z,2.77
2019-06-10T06:54:36.107Z,3.30
2019-06-10T06:57:03.694Z,2.67
2019-06-10T06:59:33.807Z,2.80
2019-06-10T07:02:00.021Z,3.47
2019-06-10T07:04:27.238Z,2.80
2019-06-10T07:06:55.707Z,2.97
2019-06-10T07:09:23.751Z,2.40
2019-06-10T07:11:52.958Z,2.90
2019-06-10T07:14:20.212Z,3.40
2019-06-10T07:16:47.503Z,3.57
2019-06-10T07:19:23.256Z,3.37
2019-06-10T07:22:08.628Z,3.20
2019-06-10T07:24:23.155Z,2.97
2019-06-10T07:27:57.318Z,2.97
2019-06-10T07:30:36.867Z,3.23
2019-06-10T07:33:04.020Z,2.80
2019-06-10T07:35:32.990Z,2.43
2019-06-10T07:38:02.815Z,2.97
2019-06-10T07:40:29.609Z,2.90
2019-06-10T07:42:58.353Z,2.60
2019-06-10T07:45:25.960Z,3.20
2019-06-10T07:47:54.181Z,3.57
2019-06-10T07:50:22.728Z,2.23
2019-06-10T07:52:50.031Z,2.33
2019-06-10T07:55:17.391Z,2.57
2019-06-10T07:57:45.696Z,2.30
2019-06-10T08:00:15.155Z,2.43
2019-06-10T08:02:46.110Z,2.57
2019-06-10T08:05:15.297Z,2.40
2019-06-10T08:07:45.117Z,2.23
2019-06-10T08:10:13.287Z,2.37
2019-06-10T08:12:48.415Z,4.03
2019-06-10T08:15:28.952Z,2.47
2019-06-10T08:18:04.522Z,2.40
2019-06-10T08:20:47.721Z,2.90
2019-06-10T08:23:17.119Z,2.50
2019-06-10T08:25:51.013Z,2.70
2019-06-10T08:28:14.897Z,2.43
2019-06-10T08:30:46.113Z,2.50
2019-06-10T08:33:16.454Z,4.10
2019-06-10T08:35:53.266Z,2.50
2019-06-10T08:38:13.208Z,2.13
2019-06-10T08:40:41.137Z,2.57
2019-06-10T08:43:09.670Z,2.07
2019-06-10T08:45:36.975Z,2.57
2019-06-10T08:48:04.664Z,2.37
2019-06-10T08:50:33.653Z,2.60
2019-06-10T08:53:13.925Z,2.13
2019-06-10T08:55:33.517Z,3.07
2019-06-10T08:58:02.778Z,2.40
2019-06-10T09:00:30.462Z,3.20
2019-06-10T09:02:58.201Z,2.27
2019-06-10T09:05:25.445Z,3.70
2019-06-10T09:07:54.494Z,2.53
2019-06-10T09:10:22.776Z,2.43
2019-06-10T09:12:54.188Z,2.57
2019-06-10T09:15:19.938Z,2.10
2019-06-10T09:17:49.573Z,2.37
2019-06-10T09:20:16.805Z,2.30
2019-06-10T09:22:48.552Z,2.33
2019-06-10T09:25:15.206Z,2.30
2019-06-10T09:27:44.973Z,2.60
2019-06-10T09:30:13.522Z,2.63
2019-06-10T09:32:42.679Z,2.50
2019-06-10T09:35:12.599Z,1.90
2019-06-10T09:37:39.985Z,2.50
2019-06-10T09:40:12.337Z,2.33
2019-06-10T09:42:41.569Z,2.33
2019-06-10T09:45:09.938Z,2.10
2019-06-10T09:47:37.816Z,2.10
2019-06-10T09:50:06.768Z,2.40
2019-06-10T09:52:34.085Z,2.70
2019-06-10T09:55:02.670Z,2.40
2019-06-10T09:57:32.181Z,2.70
2019-06-10T09:59:59.568Z,2.67
2019-06-10T10:02:26.759Z,2.70
2019-06-10T10:04:58.265Z,2.50
2019-06-10T10:07:23.315Z,2.40
2019-06-10T10:09:56.880Z,2.50
2019-06-10T10:12:22.770Z,2.63
2019-06-10T10:14:56.347Z,2.90
2019-06-10T10:17:23.829Z,2.20
2019-06-10T10:19:56.861Z,2.80
2019-06-10T10:22:24.579Z,2.47
2019-06-10T10:24:55.152Z,3.03
2019-06-10T10:27:23.375Z,2.60
2019-06-10T10:29:55.062Z,2.73
2019-06-10T10:32:22.502Z,2.50
2019-06-10T10:34:50.250Z,2.40
2019-06-10T10:37:18.798Z,2.30
2019-06-10T10:39:46.667Z,2.47
2019-06-10T10:42:13.946Z,2.50
2019-06-10T10:44:44.369Z,2.13
2019-06-10T10:47:12.446Z,2.70
2019-06-10T10:49:39.868Z,2.50
2019-06-10T10:52:09.411Z,2.70
2019-06-10T10:54:37.038Z,2.90
2019-06-10T10:57:04.377Z,2.97
2019-06-10T10:59:33.327Z,3.00
2019-06-10T11:02:02.347Z,2.73
2019-06-10T11:04:32.840Z,2.60
2019-06-10T11:07:01.175Z,2.40
2019-06-10T11:09:29.411Z,2.80
2019-06-10T11:11:58.393Z,2.40
2019-06-10T11:14:28.071Z,2.30
2019-06-10T11:16:58.475Z,2.20
2019-06-10T11:19:25.561Z,2.80
2019-06-10T11:21:53.857Z,2.40
2019-06-10T11:24:33.565Z,2.57
2019-06-10T11:26:54.515Z,2.87
2019-06-10T11:29:20.375Z,2.37
2019-06-10T11:31:48.983Z,2.40
2019-06-10T11:34:19.658Z,3.10
2019-06-10T11:36:47.981Z,2.60
2019-06-10T11:39:15.909Z,2.70
2019-06-10T11:41:43.786Z,2.87
2019-06-10T11:44:11.192Z,3.00
2019-06-10T11:46:38.417Z,2.73
2019-06-10T11:49:05.921Z,2.70
2019-06-10T11:51:33.294Z,2.97
2019-06-10T11:54:03.212Z,3.00
2019-06-10T11:56:33.452Z,3.07
2019-06-10T11:59:03.130Z,3.10
2019-06-10T12:01:29.187Z,2.97
2019-06-10T12:03:58.828Z,2.63
2019-06-10T12:06:25.638Z,3.10
2019-06-10T12:08:55.383Z,2.90
2019-06-10T12:11:23.187Z,2.57
2019-06-10T12:13:57.814Z,2.53
2019-06-10T12:17:14.817Z,2.70
2019-06-10T12:18:54.200Z,2.60
2019-06-10T12:21:23.686Z,2.90
2019-06-10T12:23:55.923Z,2.20
2019-06-10T12:26:23.419Z,2.80
2019-06-10T12:28:54.666Z,2.67
2019-06-10T12:31:23.177Z,2.80
2019-06-10T12:33:55.286Z,3.00
2019-06-10T12:36:23.703Z,2.90
2019-06-10T12:38:53.382Z,3.10
2019-06-10T12:41:23.040Z,3.10
2019-06-10T12:43:50.052Z,2.73
2019-06-10T12:46:17.544Z,2.80
2019-06-10T12:48:47.881Z,2.70
2019-06-10T12:51:15.168Z,2.70
2019-06-10T12:53:43.147Z,3.13
2019-06-10T12:56:14.556Z,2.20
2019-06-10T12:58:42.860Z,2.97
2019-06-10T13:01:09.215Z,2.87
2019-06-10T13:03:36.416Z,2.70
2019-06-10T13:06:07.147Z,2.37
2019-06-10T13:08:34.565Z,2.20
2019-06-10T13:11:02.210Z,2.40
2019-06-10T13:13:29.646Z,2.40
2019-06-10T13:15:58.115Z,2.50
2019-06-10T13:18:25.589Z,2.40
2019-06-10T13:20:53.751Z,2.30
2019-06-10T13:23:29.035Z,2.37
2019-06-10T13:25:57.290Z,2.43
2019-06-10T13:28:22.101Z,2.83
2019-06-10T13:30:48.921Z,2.53
2019-06-10T13:33:16.107Z,3.13
2019-06-10T13:35:44.263Z,2.23
2019-06-10T13:38:11.842Z,2.40
2019-06-10T13:40:39.242Z,4.57
2019-06-10T13:43:06.440Z,3.27
2019-06-10T13:45:36.182Z,3.27
2019-06-10T13:48:07.816Z,3.23
2019-06-10T13:50:32.916Z,3.07
2019-06-10T13:53:01.142Z,2.30
2019-06-10T13:55:29.528Z,2.40
2019-06-10T13:57:57.118Z,2.40
2019-06-10T14:00:40.459Z,2.40
2019-06-10T14:02:53.955Z,2.97
2019-06-10T14:05:23.649Z,2.73
2019-06-10T14:07:52.080Z,3.60
2019-06-10T14:10:22.501Z,2.40
2019-06-10T14:12:49.200Z,2.50
2019-06-10T14:15:17.210Z,2.90
2019-06-10T14:17:44.544Z,2.80
2019-06-10T14:20:15.291Z,2.53
2019-06-10T14:22:42.514Z,4.57
2019-06-10T14:25:14.125Z,2.80
2019-06-10T14:27:42.529Z,2.90
2019-06-10T14:30:09.803Z,3.13
2019-06-10T14:32:37.394Z,3.13
2019-06-10T14:35:07.026Z,3.53
2019-06-10T14:37:39.094Z,3.83
2019-06-10T14:40:05.754Z,2.93
2019-06-10T14:42:33.716Z,6.27
2019-06-10T14:45:00.935Z,3.10
2019-06-10T14:47:28.377Z,3.07
2019-06-10T14:49:56.875Z,3.07
2019-06-10T14:52:24.057Z,2.70
2019-06-10T14:54:53.206Z,2.50
2019-06-10T14:57:22.691Z,3.27
2019-06-10T14:59:49.445Z,3.47
2019-06-10T15:02:17.521Z,3.60
2019-06-10T15:04:44.697Z,3.10
2019-06-10T15:07:13.626Z,2.97
2019-06-10T15:09:43.145Z,4.10
2019-06-10T15:12:10.228Z,4.10
2019-06-10T15:14:37.444Z,3.70
2019-06-10T15:17:04.770Z,4.10
2019-06-10T15:19:33.285Z,3.77
2019-06-10T15:22:02.869Z,3.20
2019-06-10T15:24:29.908Z,3.90
2019-06-10T15:27:09.106Z,3.40
2019-06-10T15:29:26.395Z,3.43
2019-06-10T15:32:09.169Z,3.43
2019-06-10T15:34:23.148Z,3.30
2019-06-10T15:36:52.590Z,3.20
2019-06-10T15:39:23.789Z,3.80
2019-06-10T15:41:48.651Z,3.20
2019-06-10T15:44:28.421Z,3.70
2019-06-10T15:46:44.985Z,4.10
2019-06-10T15:49:16.378Z,3.80
2019-06-10T15:51:43.536Z,4.20
2019-06-10T15:54:15.374Z,3.27
2019-06-10T15:56:48.691Z,4.10
2019-06-10T15:59:08.888Z,3.80
2019-06-10T16:01:36.231Z,3.50
2019-06-10T16:04:03.518Z,3.30
2019-06-10T16:06:32.906Z,3.50
2019-06-10T16:09:00.285Z,3.80
2019-06-10T16:11:27.522Z,4.10
2019-06-10T16:13:54.707Z,4.50
2019-06-10T16:16:23.091Z,4.40
2019-06-10T16:18:52.421Z,4.10
2019-06-10T16:21:20.712Z,3.83
2019-06-10T16:23:48.960Z,3.73
2019-06-10T16:26:16.304Z,3.80
2019-06-10T16:28:43.663Z,4.00
2019-06-10T16:31:13.081Z,3.83
2019-06-10T16:33:40.126Z,4.40
2019-06-10T16:36:07.454Z,3.80
2019-06-10T16:38:35.245Z,4.07
2019-06-10T16:41:03.506Z,3.83
2019-06-10T16:43:33.461Z,4.20
2019-06-10T16:46:00.334Z,4.20
2019-06-10T16:48:27.556Z,4.67
2019-06-10T16:50:54.690Z,4.40
2019-06-10T16:53:26.744Z,4.80
2019-06-10T16:55:52.943Z,4.23
2019-06-10T16:58:23.343Z,4.17
2019-06-10T17:00:49.593Z,4.70
2019-06-10T17:03:18.352Z,4.10
2019-06-10T17:05:45.611Z,4.47
2019-06-10T17:08:12.878Z,4.37
2019-06-10T17:10:40.104Z,3.67
2019-06-10T17:13:09.227Z,4.07
2019-06-10T17:15:36.695Z,4.27
2019-06-10T17:18:04.113Z,4.93
2019-06-10T17:20:34.113Z,4.00
2019-06-10T17:23:20.898Z,5.00
2019-06-10T17:25:50.001Z,4.03
2019-06-10T17:28:18.590Z,4.97
2019-06-10T17:30:46.438Z,3.60
2019-06-10T17:33:13.717Z,4.30
2019-06-10T17:35:43.089Z,4.77
2019-06-10T17:38:12.232Z,3.83
2019-06-10T17:40:39.538Z,3.70
2019-06-10T17:43:06.701Z,3.90
2019-06-10T17:45:33.943Z,3.20
2019-06-10T17:48:03.099Z,3.83
2019-06-10T17:50:32.480Z,3.63
2019-06-10T17:52:59.234Z,3.47
2019-06-10T17:55:27.730Z,3.17
2019-06-10T17:57:55.765Z,3.17
2019-06-10T18:00:24.731Z,6.97
2019-06-10T18:02:53.599Z,5.00
2019-06-10T18:05:22.498Z,4.00
2019-06-10T18:07:50.052Z,4.30
2019-06-10T18:10:17.537Z,3.77
2019-06-10T18:12:44.637Z,4.60
2019-06-10T18:15:12.511Z,3.60
2019-06-10T18:17:39.812Z,3.40
2019-06-10T18:20:07.438Z,4.27
2019-06-10T18:22:37.031Z,3.60
2019-06-10T18:25:04.518Z,3.70
2019-06-10T18:27:34.089Z,4.10
2019-06-10T18:30:02.474Z,3.73
2019-06-10T18:32:32.463Z,4.90
2019-06-10T18:34:59.326Z,3.20
2019-06-10T18:37:26.612Z,3.90
2019-06-10T18:39:53.749Z,4.23
2019-06-10T18:42:23.601Z,3.87
2019-06-10T18:44:52.237Z,3.30
2019-06-10T18:47:19.598Z,2.90
2019-06-10T18:49:46.837Z,3.40
2019-06-10T18:52:14.434Z,3.50
2019-06-10T18:54:43.518Z,3.83
2019-06-10T18:57:10.891Z,3.20
2019-06-10T18:59:39.538Z,4.20
2019-06-10T19:02:07.177Z,3.73
2019-06-10T19:04:36.494Z,4.47
2019-06-10T19:07:03.783Z,3.23
2019-06-10T19:09:33.519Z,3.30
2019-06-10T19:12:00.094Z,3.50
2019-06-10T19:14:27.750Z,3.70
2019-06-10T19:16:54.944Z,3.43
2019-06-10T19:19:22.884Z,4.07
2019-06-10T19:22:04.665Z,4.10
2019-06-10T19:24:25.358Z,3.40
2019-06-10T19:26:53.139Z,3.50
2019-06-10T19:29:32.647Z,4.30
2019-06-10T19:31:49.642Z,3.10
2019-06-10T19:34:17.302Z,3.30
2019-06-10T19:36:44.535Z,3.17
2019-06-10T19:39:13.137Z,3.80
2019-06-10T19:41:46.652Z,3.20
2019-06-10T19:44:09.826Z,4.63
2019-06-10T19:46:37.752Z,4.90
2019-06-10T19:49:07.174Z,3.40
2019-06-10T19:51:34.712Z,3.70
2019-06-10T19:54:03.696Z,3.10
2019-06-10T19:56:31.529Z,3.10
2019-06-10T19:58:58.705Z,3.90
2019-06-10T20:01:26.027Z,3.40
2019-06-10T20:03:53.245Z,3.40
2019-06-10T20:06:20.750Z,3.80
2019-06-10T20:08:47.949Z,3.00
2019-06-10T20:11:15.307Z,4.20
2019-06-10T20:13:43.784Z,3.60
2019-06-10T20:16:12.161Z,4.27
2019-06-10T20:18:40.474Z,3.60
2019-06-10T20:21:08.142Z,3.40
2019-06-10T20:23:35.422Z,3.37
2019-06-10T20:26:02.801Z,4.20
2019-06-10T20:28:32.196Z,4.63
2019-06-10T20:30:59.377Z,3.57
2019-06-10T20:33:37.024Z,3.03
2019-06-10T20:36:07.572Z,4.10
2019-06-10T20:38:33.612Z,4.13
2019-06-10T20:41:02.684Z,4.43
2019-06-10T20:43:32.644Z,4.73
2019-06-10T20:45:59.415Z,4.60
2019-06-10T20:48:26.685Z,4.67
2019-06-10T20:50:53.813Z,4.97
2019-06-10T20:53:21.038Z,4.63
2019-06-10T20:55:54.453Z,4.87
2019-06-10T20:58:17.381Z,4.70
2019-06-10T21:00:51.039Z,5.43
2019-06-10T21:03:14.314Z,4.83
2019-06-10T21:05:45.659Z,4.50
2019-06-10T21:08:14.084Z,5.17
2019-06-10T21:10:44.686Z,4.37
2019-06-10T21:13:12.331Z,4.77
2019-06-10T21:15:40.570Z,4.53
2019-06-10T21:18:09.285Z,5.00
2019-06-10T21:20:36.358Z,4.80
2019-06-10T21:23:03.985Z,4.73
2019-06-10T21:25:32.463Z,4.93
2019-06-10T21:28:02.738Z,4.37
2019-06-10T21:30:40.708Z,4.23
2019-06-10T21:32:59.467Z,4.27
2019-06-10T21:35:26.716Z,3.90
2019-06-10T21:37:53.919Z,4.20
2019-06-10T21:40:21.176Z,4.57
2019-06-10T21:42:48.347Z,5.23
2019-06-10T21:45:15.747Z,4.87
2019-06-10T21:47:44.423Z,4.40
2019-06-10T21:50:12.541Z,4.30
2019-06-10T21:52:40.090Z,4.37
2019-06-10T21:55:07.406Z,5.00
2019-06-10T21:57:35.517Z,4.10
2019-06-10T22:00:10.632Z,4.10
2019-06-10T22:02:34.019Z,4.17
2019-06-10T22:05:03.379Z,4.00
2019-06-10T22:07:32.843Z,3.73
2019-06-10T22:10:02.347Z,4.00
2019-06-10T22:12:29.015Z,3.47
2019-06-10T22:14:56.322Z,4.00
2019-06-10T22:17:23.588Z,4.87
2019-06-10T22:19:53.177Z,3.87
2019-06-10T22:22:19.854Z,4.30
2019-06-10T22:24:47.086Z,3.87
2019-06-10T22:27:14.359Z,4.27
2019-06-10T22:29:42.678Z,3.73
2019-06-10T22:32:12.903Z,4.57
2019-06-10T22:34:42.123Z,3.80
2019-06-10T22:37:09.468Z,3.83
2019-06-10T22:39:36.788Z,4.27
2019-06-10T22:42:04.031Z,4.10
2019-06-10T22:44:33.083Z,3.90
2019-06-10T22:47:02.787Z,3.97
2019-06-10T22:49:29.676Z,5.17
2019-06-10T22:51:58.565Z,5.20
2019-06-10T22:54:26.151Z,3.87
2019-06-10T22:56:56.220Z,4.30
2019-06-10T22:59:23.023Z,4.40
2019-06-10T23:01:53.575Z,3.90
2019-06-10T23:04:19.408Z,4.20
2019-06-10T23:06:46.575Z,4.77
2019-06-10T23:09:13.910Z,4.47
2019-06-10T23:11:42.418Z,4.30
2019-06-10T23:14:12.250Z,4.50
2019-06-10T23:16:38.879Z,3.87
2019-06-10T23:19:06.038Z,4.20
2019-06-10T23:21:33.300Z,4.50
2019-06-10T23:24:02.964Z,4.30
2019-06-10T23:26:29.708Z,4.20
2019-06-10T23:28:58.502Z,4.20
2019-06-10T23:31:25.886Z,5.00
2019-06-10T23:33:56.256Z,3.77
2019-06-10T23:36:23.533Z,4.60
2019-06-10T23:38:50.961Z,4.20
2019-06-10T23:41:18.009Z,3.60
2019-06-10T23:43:45.306Z,3.70
2019-06-10T23:46:12.509Z,4.50
2019-06-10T23:48:39.685Z,4.37
2019-06-10T23:51:06.783Z,3.60
2019-06-10T23:53:34.434Z,3.97
2019-06-10T23:56:04.712Z,3.33
2019-06-10T23:58:32.872Z,4.27
